This is the latest recevied weather packets stored in our database for station/object SQ5OUZ-8. If no packets are shown the sender has not sent any weather packets the latest 10 day(s).
| Time | Temp. | Humidity | Pressure | Rain* | Wind** | Luminosity | Snow |
|---|---|---|---|---|---|---|---|
| 1777700670 | 12.22° C | 67% | 1027 hPa | - | - | - | - |
| 1777699494 | 11.11° C | 72% | 1027 hPa | - | - | - | - |
| 1777698522 | 10.56° C | 75% | 1027 hPa | - | - | - | - |
| 1777697334 | 9.44° C | 79% | 1027 hPa | - | - | - | - |
| 1777696209 | 8.89° C | 82% | 1027 hPa | - | - | - | - |
| 1777695037 | 8.89° C | 83% | 1027 hPa | - | - | - | - |
| 1777693956 | 8.33° C | 84% | 1027 hPa | - | - | - | - |
| 1777692987 | 8.33° C | 85% | 1027 hPa | - | - | - | - |
| 1777691915 | 8.33° C | 85% | 1027 hPa | - | - | - | - |
| 1777690904 | 8.33° C | 85% | 1027 hPa | - | - | - | - |
| 1777689719 | 8.33° C | 82% | 1027 hPa | - | - | - | - |
| 1777688662 | 8.33° C | 83% | 1026 hPa | - | - | - | - |
| 1777687559 | 8.33° C | 82% | 1027 hPa | - | - | - | - |
| 1777686374 | 8.89° C | 80% | 1027 hPa | - | - | - | - |
| 1777685392 | 8.89° C | 79% | 1027 hPa | - | - | - | - |
| 1777684233 | 8.89° C | 78% | 1027 hPa | - | - | - | - |
| 1777683141 | 9.44° C | 76% | 1026 hPa | - | - | - | - |
| 1777681963 | 9.44° C | 75% | 1027 hPa | - | - | - | - |
| 1777680955 | 10° C | 73% | 1027 hPa | - | - | - | - |
| 1777679887 | 10° C | 72% | 1027 hPa | - | - | - | - |
| 1777678902 | 10.56° C | 69% | 1027 hPa | - | - | - | - |
| 1777677940 | 10.56° C | 68% | 1027 hPa | - | - | - | - |
| 1777676937 | 10.56° C | 68% | 1027 hPa | - | - | - | - |
| 1777675889 | 11.11° C | 67% | 1026 hPa | - | - | - | - |
| 1777674933 | 11.11° C | 66% | 1026 hPa | - | - | - | - |
* Rain since midnight (hover to see other rain measurements)
** Current wind speed in m/s (hover to see current wind gust speed)